Time;durP1;ratioP1;P1;durP2;ratioP2;P2;SDS_P1;SDS_P2;PMS_P1;PMS_P2;Temp;Humidity;BMP_temperature;BMP_pressure;BME280_temperature;BME280_humidity;BME280_pressure;Samples;Min_cycle;Max_cycle;Signal;HPM_P1;HPM_P2
2022/06/10 00:01:00;;;;;;;9.37;4.17;;;13.70;99.90;;;;;;5105522;28;20552;-73
2022/06/10 00:03:27;;;;;;;9.38;3.83;;;13.70;99.90;;;;;;5085075;28;20044;-73
2022/06/10 00:05:56;;;;;;;10.10;3.72;;;13.80;99.90;;;;;;5100050;28;20036;-73
2022/06/10 00:08:25;;;;;;;7.82;3.60;;;13.80;99.90;;;;;;5088912;28;20054;-73
2022/06/10 00:10:51;;;;;;;9.13;3.85;;;13.80;99.90;;;;;;5076781;28;20039;-73
2022/06/10 00:13:18;;;;;;;11.82;3.92;;;13.80;99.90;;;;;;5105491;28;20039;-73
2022/06/10 00:15:44;;;;;;;;;;;13.80;99.90;;;;;;5082587;28;20093;-73
2022/06/10 00:18:10;;;;;;;8.57;3.90;;;13.80;99.90;;;;;;5098503;28;20332;-73
2022/06/10 00:20:36;;;;;;;10.77;4.47;;;13.80;99.90;;;;;;5101774;28;20089;-73
2022/06/10 00:23:02;;;;;;;10.30;4.57;;;13.80;99.90;;;;;;5080491;28;20040;-73
2022/06/10 00:25:29;;;;;;;11.80;4.45;;;13.80;99.90;;;;;;5081028;28;20048;-73
2022/06/10 00:27:55;;;;;;;9.13;3.87;;;13.80;99.90;;;;;;5080857;28;20471;-73
2022/06/10 00:30:24;;;;;;;11.40;4.60;;;13.80;99.90;;;;;;5104033;28;20112;-72
2022/06/10 00:32:50;;;;;;;10.10;4.03;;;13.80;99.90;;;;;;5103731;28;20048;-72
2022/06/10 00:35:17;;;;;;;10.30;3.95;;;13.80;99.90;;;;;;5103846;28;20132;-73
2022/06/10 00:37:42;;;;;;;10.40;4.25;;;13.90;99.90;;;;;;5078183;28;20036;-73
2022/06/10 00:40:14;;;;;;;11.00;3.50;;;13.90;99.90;;;;;;5078166;28;20113;-73
2022/06/10 00:42:40;;;;;;;7.80;3.58;;;13.90;99.90;;;;;;5086185;28;20467;-73
2022/06/10 00:45:26;;;;;;;12.30;4.20;;;13.90;99.90;;;;;;5082898;28;20055;-73
2022/06/10 00:47:52;;;;;;;11.80;4.07;;;13.90;99.90;;;;;;5100471;28;20040;-73
2022/06/10 00:50:30;;;;;;;8.30;3.72;;;13.80;99.90;;;;;;5100330;28;20316;-73
2022/06/10 00:53:10;;;;;;;10.30;3.75;;;13.80;99.90;;;;;;5081954;28;20058;-72
2022/06/10 00:55:40;;;;;;;11.57;4.30;;;13.80;99.90;;;;;;5095106;28;20115;-73
2022/06/10 00:58:14;;;;;;;7.60;4.28;;;13.70;99.90;;;;;;5070512;28;20406;-72
2022/06/10 01:00:40;;;;;;;11.25;4.55;;;13.70;99.90;;;;;;5096126;28;20040;-73
2022/06/10 01:03:06;;;;;;;14.85;4.95;;;13.70;99.90;;;;;;5089274;28;20422;-73
2022/06/10 01:05:32;;;;;;;9.20;4.30;;;13.70;99.90;;;;;;5102220;28;20031;-73
2022/06/10 01:08:10;;;;;;;10.30;4.25;;;13.70;99.90;;;;;;5105490;28;20079;-73
2022/06/10 01:11:01;;;;;;;10.50;4.55;;;13.60;99.90;;;;;;5090261;28;20515;-73
2022/06/10 01:13:38;;;;;;;11.57;4.82;;;13.60;99.90;;;;;;5080723;28;20044;-73
2022/06/10 01:16:31;;;;;;;9.53;4.10;;;13.50;99.90;;;;;;5073385;28;20047;-73
2022/06/10 01:19:13;;;;;;;15.75;4.43;;;13.60;99.90;;;;;;5106641;28;20039;-73
2022/06/10 01:22:11;;;;;;;12.68;4.53;;;13.50;99.90;;;;;;5088974;28;20047;-73
2022/06/10 01:24:48;;;;;;;10.57;4.70;;;13.50;99.90;;;;;;5078056;28;20176;-73
2022/06/10 01:27:48;;;;;;;12.95;5.20;;;13.60;99.90;;;;;;5085466;28;20052;-73
2022/06/10 01:30:30;;;;;;;10.63;4.53;;;13.60;99.90;;;;;;5088995;28;20055;-73
2022/06/10 01:33:06;;;;;;;8.73;4.50;;;13.60;99.90;;;;;;5071551;28;20093;-73
2022/06/10 01:35:50;;;;;;;12.43;5.03;;;13.60;99.90;;;;;;5091348;28;20039;-73
2022/06/10 01:38:43;;;;;;;12.80;4.55;;;13.60;99.90;;;;;;5104102;28;20051;-73
2022/06/10 01:41:44;;;;;;;15.63;4.22;;;13.60;99.90;;;;;;5106938;28;20043;-73
2022/06/10 01:44:19;;;;;;;13.63;4.05;;;13.60;99.90;;;;;;5071972;28;20087;-73
2022/06/10 01:47:00;;;;;;;11.05;4.38;;;13.50;99.90;;;;;;5081804;28;20553;-73
2022/06/10 01:49:43;;;;;;;9.10;3.70;;;13.50;99.90;;;;;;5108255;28;20051;-73
2022/06/10 01:52:14;;;;;;;13.27;4.50;;;13.50;99.90;;;;;;5104427;28;20509;-73
2022/06/10 01:55:14;;;;;;;11.35;4.72;;;13.50;99.90;;;;;;5075753;28;20044;-73
2022/06/10 01:58:14;;;;;;;9.00;4.07;;;13.40;99.90;;;;;;5089274;28;20131;-73
2022/06/10 02:00:44;;;;;;;9.43;4.05;;;13.40;99.90;;;;;;5077067;28;20131;-73
2022/06/10 02:03:16;;;;;;;7.90;3.95;;;13.40;99.90;;;;;;5105605;28;20032;-73
2022/06/10 02:05:49;;;;;;;8.98;4.10;;;13.40;99.90;;;;;;5110440;28;20089;-73
2022/06/10 02:08:20;;;;;;;12.18;4.15;;;13.40;99.90;;;;;;5089747;28;20052;-73
2022/06/10 02:10:52;;;;;;;12.52;4.20;;;13.40;99.90;;;;;;5110696;28;20418;-72
2022/06/10 02:13:23;;;;;;;11.48;4.07;;;13.40;99.90;;;;;;5109943;28;20390;-73
2022/06/10 02:15:57;;;;;;;10.80;4.20;;;13.40;99.90;;;;;;5100521;28;20036;-73
2022/06/10 02:18:35;;;;;;;10.82;4.05;;;13.40;99.90;;;;;;5102999;28;20111;-73
2022/06/10 02:21:11;;;;;;;10.38;3.97;;;13.40;99.90;;;;;;5080134;28;20036;-72
2022/06/10 02:23:40;;;;;;;13.77;4.20;;;13.40;99.90;;;;;;5091584;28;20052;-73
2022/06/10 02:26:07;;;;;;;9.75;4.05;;;13.40;99.90;;;;;;5094603;28;20096;-73
2022/06/10 02:28:41;;;;;;;9.50;3.63;;;13.50;99.90;;;;;;5092737;28;20044;-73
2022/06/10 02:31:23;;;;;;;10.70;4.00;;;13.50;99.90;;;;;;5110231;28;20084;-72
2022/06/10 02:33:49;;;;;;;8.20;3.60;;;13.50;99.90;;;;;;5087045;28;20130;-73
2022/06/10 02:36:22;;;;;;;9.98;3.97;;;13.40;99.90;;;;;;5090991;28;20039;-73
2022/06/10 02:38:52;;;;;;;10.60;3.97;;;13.40;99.90;;;;;;5110588;28;20043;-73
2022/06/10 02:41:43;;;;;;;9.73;3.83;;;13.40;99.90;;;;;;5091814;28;20044;-73
2022/06/10 02:44:21;;;;;;;10.98;3.83;;;13.40;99.90;;;;;;5100767;28;20118;-73
2022/06/10 02:47:18;;;;;;;8.43;3.97;;;13.40;99.90;;;;;;5107161;28;20051;-74
2022/06/10 02:49:44;;;;;;;9.77;4.13;;;13.40;99.90;;;;;;5084222;28;20052;-73
2022/06/10 02:52:13;;;;;;;8.25;4.07;;;13.30;99.90;;;;;;5099531;28;20115;-73
2022/06/10 02:54:40;;;;;;;9.43;3.80;;;13.40;99.90;;;;;;5104135;28;20035;-73
2022/06/10 02:57:15;;;;;;;8.18;4.22;;;13.40;99.90;;;;;;5076327;28;20113;-73
2022/06/10 03:02:54;;;;;;;10.73;4.00;;;13.40;99.90;;;;;;5097634;28;20083;-73
2022/06/10 03:05:35;;;;;;;10.27;4.40;;;13.40;99.90;;;;;;5099453;28;20043;-73
2022/06/10 03:08:23;;;;;;;12.73;4.70;;;13.40;99.90;;;;;;5090562;28;20047;-72
2022/06/10 03:11:35;;;;;;;10.35;4.50;;;13.40;99.90;;;;;;5090805;28;20059;-72
2022/06/10 03:14:29;;;;;;;14.13;4.80;;;13.40;99.90;;;;;;5011433;28;20045;-72
2022/06/10 03:17:09;;;;;;;11.40;4.35;;;13.30;99.90;;;;;;5004985;28;20061;-72
2022/06/10 03:19:45;;;;;;;10.43;4.50;;;13.30;99.90;;;;;;5071209;28;20059;-74
2022/06/10 03:22:30;;;;;;;11.43;4.53;;;13.30;99.90;;;;;;5086681;28;20050;-73
2022/06/10 03:25:08;;;;;;;11.40;4.57;;;13.30;99.90;;;;;;5088600;28;20407;-73
2022/06/10 03:27:53;;;;;;;11.23;4.50;;;13.30;99.90;;;;;;5089383;28;20040;-73
2022/06/10 03:30:24;;;;;;;9.43;4.50;;;13.30;99.90;;;;;;5080273;28;20104;-73
2022/06/10 03:33:08;;;;;;;10.80;4.45;;;13.30;99.90;;;;;;5073357;28;20052;-73
2022/06/10 03:35:47;;;;;;;8.55;4.07;;;13.30;99.90;;;;;;5104689;28;20031;-73
2022/06/10 03:38:13;;;;;;;10.05;4.00;;;13.20;99.90;;;;;;5090320;28;20107;-73
2022/06/10 03:40:40;;;;;;;8.75;3.72;;;13.30;99.90;;;;;;5105573;28;20080;-73
2022/06/10 03:43:13;;;;;;;12.70;4.60;;;13.20;99.90;;;;;;5088231;28;20050;-73
2022/06/10 03:45:47;;;;;;;10.98;4.28;;;13.20;99.90;;;;;;5088020;28;20298;-73
2022/06/10 03:48:19;;;;;;;10.77;4.20;;;13.20;99.90;;;;;;5090108;28;20052;-73
2022/06/10 03:50:47;;;;;;;9.30;4.40;;;13.20;99.90;;;;;;5082771;28;20040;-73
2022/06/10 03:53:24;;;;;;;10.35;4.60;;;13.20;99.90;;;;;;5104215;28;20039;-73
2022/06/10 03:55:50;;;;;;;;;;;13.30;99.90;;;;;;5089972;28;20051;-76
2022/06/10 03:58:17;;;;;;;12.32;5.35;;;13.30;99.90;;;;;;5082560;28;20394;-75
2022/06/10 04:00:44;;;;;;;11.55;4.95;;;13.30;99.90;;;;;;5093765;28;20032;-74
2022/06/10 04:03:10;;;;;;;11.57;5.20;;;13.40;99.90;;;;;;5078205;28;20054;-74
2022/06/10 04:05:36;;;;;;;11.20;5.15;;;13.40;99.90;;;;;;5098014;28;20031;-74
2022/06/10 04:08:02;;;;;;;11.05;5.30;;;13.50;99.90;;;;;;5108127;28;20044;-75
2022/06/10 04:10:29;;;;;;;11.25;4.75;;;13.40;99.90;;;;;;5106225;28;20637;-74
2022/06/10 04:12:55;;;;;;;11.23;4.90;;;13.50;99.90;;;;;;5072163;28;20073;-74
2022/06/10 04:15:25;;;;;;;8.73;4.70;;;13.50;99.90;;;;;;5102093;28;20048;-74
2022/06/10 04:17:52;;;;;;;8.77;4.88;;;13.60;99.90;;;;;;5109590;28;20055;-75
2022/06/10 04:20:24;;;;;;;10.95;5.80;;;13.60;99.90;;;;;;5086431;28;20402;-75
2022/06/10 04:22:50;;;;;;;11.23;5.13;;;13.60;99.90;;;;;;5096383;28;20059;-74
2022/06/10 04:25:15;;;;;;;10.95;5.30;;;13.60;99.90;;;;;;5106292;28;20039;-74
2022/06/10 04:27:44;;;;;;;13.57;4.93;;;13.70;99.90;;;;;;5107627;28;20482;-74
2022/06/10 04:30:24;;;;;;;9.10;4.70;;;13.80;99.90;;;;;;5107322;28;20099;-74
2022/06/10 04:32:50;;;;;;;9.55;5.53;;;13.90;99.90;;;;;;5085171;28;20067;-74
2022/06/10 04:35:16;;;;;;;15.77;6.18;;;13.90;99.90;;;;;;5085151;28;20093;-74
2022/06/10 04:37:44;;;;;;;9.80;5.20;;;13.90;99.90;;;;;;5073068;28;20437;-74
2022/06/10 04:40:18;;;;;;;12.57;6.03;;;14.00;99.90;;;;;;5088913;28;20040;-74
2022/06/10 04:42:47;;;;;;;10.52;5.45;;;14.10;99.90;;;;;;5107189;28;20044;-75
2022/06/10 04:45:15;;;;;;;11.02;5.55;;;14.10;99.90;;;;;;5096437;28;20508;-74
2022/06/10 04:47:41;;;;;;;12.77;6.15;;;14.10;99.90;;;;;;5075422;28;20059;-74
2022/06/10 04:50:09;;;;;;;9.57;5.57;;;14.20;99.90;;;;;;5105481;28;20130;-75
2022/06/10 04:52:35;;;;;;;14.35;5.78;;;14.20;99.90;;;;;;5107718;28;20058;-75
2022/06/10 04:55:02;;;;;;;11.52;6.32;;;14.30;99.90;;;;;;5102286;28;20401;-74
2022/06/10 04:57:28;;;;;;;11.52;6.00;;;14.30;99.90;;;;;;5108770;28;20054;-75
2022/06/10 04:59:54;;;;;;;12.38;6.15;;;14.30;99.90;;;;;;5090106;28;20031;-75
2022/06/10 05:02:20;;;;;;;12.73;6.18;;;14.40;99.90;;;;;;5108332;28;20047;-74
2022/06/10 05:04:45;;;;;;;12.50;5.72;;;14.40;99.90;;;;;;5106496;28;20101;-75
2022/06/10 05:07:11;;;;;;;14.95;5.90;;;14.50;99.90;;;;;;5109382;28;20438;-75
2022/06/10 05:09:37;;;;;;;11.55;5.68;;;14.60;99.90;;;;;;5109397;28;20058;-74
2022/06/10 05:12:03;;;;;;;15.45;6.13;;;14.60;99.90;;;;;;5090229;28;20040;-74
2022/06/10 05:14:29;;;;;;;11.18;5.95;;;14.60;99.90;;;;;;5108179;28;20401;-74
2022/06/10 05:16:56;;;;;;;11.20;5.90;;;14.70;99.90;;;;;;5107635;28;20039;-74
2022/06/10 05:19:23;;;;;;;11.68;5.95;;;14.80;99.90;;;;;;5107276;28;20093;-73
2022/06/10 05:21:48;;;;;;;12.75;5.72;;;14.80;99.90;;;;;;5109436;28;20101;-76
2022/06/10 05:24:14;;;;;;;14.15;6.10;;;14.90;99.90;;;;;;5088560;28;20035;-73
2022/06/10 05:26:40;;;;;;;12.13;6.22;;;15.00;99.90;;;;;;5103647;28;20046;-74
2022/06/10 05:29:06;;;;;;;12.30;6.03;;;15.00;99.90;;;;;;5090450;28;20055;-74
2022/06/10 05:31:31;;;;;;;13.98;6.95;;;15.10;99.90;;;;;;5083499;28;20104;-74
2022/06/10 05:36:41;;;;;;;14.00;6.03;;;15.20;99.90;;;;;;5095331;28;20500;-74
2022/06/10 05:39:07;;;;;;;12.23;6.30;;;15.30;99.90;;;;;;5078143;28;20043;-74
2022/06/10 05:44:17;;;;;;;12.55;6.28;;;15.50;99.90;;;;;;5109275;28;20048;-76
2022/06/10 05:46:43;;;;;;;16.05;7.63;;;15.50;99.90;;;;;;5109589;28;20028;-75
2022/06/10 05:49:09;;;;;;;15.40;7.57;;;15.60;99.90;;;;;;5112333;28;20088;-75
2022/06/10 05:51:38;;;;;;;15.40;6.53;;;15.70;99.90;;;;;;5093938;28;20051;-75
2022/06/10 05:54:04;;;;;;;13.85;6.72;;;15.70;99.90;;;;;;5110410;28;20036;-75
2022/06/10 05:56:30;;;;;;;13.38;6.20;;;15.80;99.90;;;;;;5096994;28;20036;-75
2022/06/10 05:58:56;;;;;;;13.05;5.70;;;15.90;99.90;;;;;;5111811;28;20541;-73
2022/06/10 06:01:22;;;;;;;13.35;5.85;;;16.00;99.90;;;;;;5091852;28;20136;-73
2022/06/10 06:03:48;;;;;;;14.35;5.78;;;16.00;99.90;;;;;;5107388;28;20074;-74
2022/06/10 06:06:14;;;;;;;8.90;4.53;;;16.00;99.90;;;;;;5094101;28;20557;-74
2022/06/10 06:08:40;;;;;;;11.03;4.97;;;16.00;99.90;;;;;;5097341;28;20481;-74
2022/06/10 06:11:06;;;;;;;15.32;5.13;;;16.00;99.90;;;;;;5106371;28;20119;-74
2022/06/10 06:13:31;;;;;;;13.07;5.47;;;16.00;99.90;;;;;;5103864;28;20032;-74
2022/06/10 06:15:58;;;;;;;11.32;5.35;;;16.00;99.90;;;;;;5086990;28;20050;-74
2022/06/10 06:18:24;;;;;;;12.57;5.85;;;16.00;99.90;;;;;;5105480;28;20040;-74
2022/06/10 06:20:49;;;;;;;13.55;5.85;;;16.00;99.90;;;;;;5090476;28;20479;-73
2022/06/10 06:23:15;;;;;;;15.65;6.05;;;15.90;99.90;;;;;;5090662;28;20123;-74
2022/06/10 06:25:41;;;;;;;10.82;6.00;;;15.90;99.90;;;;;;5086154;28;20073;-74
2022/06/10 06:28:07;;;;;;;11.73;6.15;;;15.90;99.90;;;;;;5087084;28;20048;-74
2022/06/10 06:30:36;;;;;;;14.85;6.00;;;15.90;99.90;;;;;;5088585;28;20059;-73
2022/06/10 06:33:05;;;;;;;10.50;5.85;;;15.90;99.90;;;;;;5081764;28;20093;-74
2022/06/10 06:35:33;;;;;;;12.23;6.45;;;15.90;99.90;;;;;;5102011;28;20114;-73
2022/06/10 06:37:59;;;;;;;12.02;6.30;;;16.00;99.90;;;;;;5095243;28;20051;-73
2022/06/10 06:40:25;;;;;;;12.85;6.07;;;16.00;99.90;;;;;;5071635;28;20447;-73
2022/06/10 06:42:51;;;;;;;14.25;6.45;;;16.10;99.90;;;;;;5082729;28;20055;-73
2022/06/10 06:45:19;;;;;;;13.13;6.75;;;16.10;99.90;;;;;;5072875;28;20040;-74
2022/06/10 06:47:44;;;;;;;10.65;5.70;;;16.20;99.90;;;;;;5087171;28;20625;-73
2022/06/10 06:50:13;;;;;;;13.48;5.95;;;16.20;99.90;;;;;;5093401;28;20058;-74
2022/06/10 06:52:40;;;;;;;11.23;5.45;;;16.30;99.90;;;;;;5100720;28;20070;-73
2022/06/10 06:55:06;;;;;;;12.95;4.90;;;16.30;99.90;;;;;;5094509;28;20048;-73
2022/06/10 06:57:32;;;;;;;11.48;5.38;;;16.30;99.90;;;;;;5086551;28;20071;-74
2022/06/10 07:00:05;;;;;;;11.18;5.18;;;16.20;99.90;;;;;;5099178;28;20077;-73
2022/06/10 07:02:32;;;;;;;12.82;4.97;;;16.20;99.90;;;;;;5077278;28;20097;-74
2022/06/10 07:04:58;;;;;;;12.95;5.10;;;16.30;99.90;;;;;;5093599;28;20090;-74
2022/06/10 07:07:24;;;;;;;15.85;4.93;;;16.20;99.90;;;;;;5093409;28;20043;-74
2022/06/10 07:09:50;;;;;;;14.77;4.90;;;16.20;99.90;;;;;;5071726;28;20040;-73
2022/06/10 07:12:16;;;;;;;13.40;5.20;;;16.20;99.90;;;;;;5079683;28;20463;-74
2022/06/10 07:14:42;;;;;;;14.65;5.97;;;16.20;99.90;;;;;;5106266;28;20044;-75
2022/06/10 07:17:08;;;;;;;15.30;6.35;;;16.20;99.90;;;;;;5098247;28;20043;-73
2022/06/10 07:19:33;;;;;;;15.63;6.60;;;16.20;99.90;;;;;;5097405;28;20379;-79
2022/06/10 07:21:59;;;;;;;11.75;6.45;;;16.20;99.90;;;;;;5105178;28;20039;-72
2022/06/10 07:24:25;;;;;;;12.15;6.13;;;16.10;99.90;;;;;;5087677;28;20122;-77
2022/06/10 07:26:52;;;;;;;15.07;6.40;;;16.10;99.90;;;;;;5106777;28;20398;-76
2022/06/10 07:29:18;;;;;;;14.55;6.60;;;16.00;99.90;;;;;;5103146;28;20061;-75
2022/06/10 07:31:45;;;;;;;13.77;6.95;;;16.10;99.90;;;;;;5108224;28;20040;-77
2022/06/10 07:34:11;;;;;;;16.20;6.78;;;16.10;99.90;;;;;;5091601;28;20105;-78
2022/06/10 07:36:39;;;;;;;14.60;6.88;;;16.20;99.90;;;;;;5100464;28;20051;-77
2022/06/10 07:39:05;;;;;;;12.57;7.30;;;16.30;99.90;;;;;;5104427;28;20043;-77
2022/06/10 07:44:20;;;;;;;16.38;9.55;;;16.30;99.90;;;;;;5106547;28;20047;-77
2022/06/10 07:46:53;;;;;;;19.30;11.80;;;16.40;99.90;;;;;;5104110;28;20039;-79
2022/06/10 07:49:19;;;;;;;21.17;12.75;;;16.30;99.90;;;;;;5091692;28;20044;-79
2022/06/10 07:51:46;;;;;;;18.63;9.00;;;16.40;99.90;;;;;;5083689;28;20081;-79
2022/06/10 07:54:13;;;;;;;16.13;8.02;;;16.40;99.90;;;;;;5105447;28;20371;-78
2022/06/10 07:56:39;;;;;;;16.15;7.18;;;16.50;99.90;;;;;;5105608;28;20051;-75
2022/06/10 07:59:06;;;;;;;12.38;7.20;;;16.60;99.90;;;;;;5092260;28;20745;-74
2022/06/10 08:01:32;;;;;;;15.70;7.40;;;16.70;99.90;;;;;;5099885;28;20449;-77
2022/06/10 08:03:58;;;;;;;13.67;6.80;;;16.80;99.90;;;;;;5091896;28;20402;-77
2022/06/10 08:06:26;;;;;;;11.95;6.97;;;16.90;99.90;;;;;;5082445;28;20297;-76
2022/06/10 08:08:52;;;;;;;15.15;6.53;;;17.00;99.90;;;;;;5099689;28;20126;-75
2022/06/10 08:11:19;;;;;;;15.88;7.22;;;17.20;99.90;;;;;;5081789;28;20439;-73
2022/06/10 08:13:45;;;;;;;14.52;7.10;;;17.30;99.90;;;;;;5106592;28;20043;-75
2022/06/10 08:16:11;;;;;;;14.77;6.55;;;17.40;99.90;;;;;;5087023;28;20506;-76
2022/06/10 08:18:37;;;;;;;12.27;5.93;;;17.50;99.90;;;;;;5085611;28;20073;-76
2022/06/10 08:23:49;;;;;;;12.45;6.65;;;17.70;99.90;;;;;;5101651;28;20048;-76
2022/06/10 08:26:17;;;;;;;13.25;5.82;;;17.60;99.90;;;;;;5082451;28;20116;-76
2022/06/10 08:28:45;;;;;;;14.35;6.38;;;17.70;99.90;;;;;;5105161;28;20518;-76
2022/06/10 08:31:13;;;;;;;10.18;6.05;;;17.70;99.90;;;;;;5106705;28;20267;-76
2022/06/10 08:33:40;;;;;;;11.65;5.65;;;17.70;99.90;;;;;;5097823;28;20031;-78
2022/06/10 08:36:07;;;;;;;11.38;5.25;;;17.70;99.90;;;;;;5088018;28;20051;-73
2022/06/10 08:38:35;;;;;;;13.82;5.50;;;17.60;99.90;;;;;;5093779;28;20520;-74
2022/06/10 08:41:00;;;;;;;13.13;5.53;;;17.60;99.90;;;;;;5103809;28;20114;-73
2022/06/10 08:43:29;;;;;;;12.05;5.70;;;17.50;99.90;;;;;;5093923;28;20115;-73
2022/06/10 08:46:06;;;;;;;10.48;5.57;;;17.50;99.90;;;;;;5090831;28;20046;-74
2022/06/10 08:49:06;;;;;;;10.57;5.40;;;17.60;99.90;;;;;;5107914;28;20067;-73
2022/06/10 08:51:54;;;;;;;13.18;5.57;;;17.60;99.90;;;;;;5104448;28;20086;-74
2022/06/10 08:54:32;;;;;;;14.13;5.07;;;17.60;99.90;;;;;;5045266;28;20044;-74
2022/06/10 08:57:06;;;;;;;11.15;5.15;;;17.70;99.90;;;;;;5097016;28;20506;-76
2022/06/10 08:59:43;;;;;;;15.90;5.85;;;17.70;99.90;;;;;;5070888;28;20052;-69
2022/06/10 09:02:08;;;;;;;14.25;5.50;;;17.80;99.90;;;;;;5099906;28;20043;-72
2022/06/10 09:04:57;;;;;;;12.85;5.30;;;17.80;99.90;;;;;;5104686;28;20134;-73
2022/06/10 09:07:33;;;;;;;12.48;5.65;;;17.90;99.90;;;;;;5091006;28;20086;-72
2022/06/10 09:10:01;;;;;;;11.50;5.72;;;17.90;99.90;;;;;;5076174;28;20069;-75
2022/06/10 09:12:58;;;;;;;13.88;6.00;;;17.90;99.90;;;;;;5101239;28;20381;-76
2022/06/10 09:15:52;;;;;;;10.65;5.35;;;17.90;99.90;;;;;;5086375;28;20047;-88
2022/06/10 09:18:42;;;;;;;9.52;5.75;;;18.00;99.90;;;;;;5097057;28;20508;-79
2022/06/10 09:21:19;;;;;;;10.93;5.68;;;18.00;99.90;;;;;;5095860;28;20031;-76
2022/06/10 09:23:46;;;;;;;16.17;4.90;;;18.10;99.90;;;;;;5097941;28;20032;-76
2022/06/10 09:26:39;;;;;;;12.05;6.47;;;18.10;99.90;;;;;;5099458;28;20046;-76
2022/06/10 09:29:05;;;;;;;11.88;5.40;;;18.20;99.90;;;;;;5082351;28;20058;-76
2022/06/10 09:31:41;;;;;;;13.13;6.03;;;18.20;99.90;;;;;;5104007;28;20135;-79
2022/06/10 09:34:25;;;;;;;13.05;5.80;;;18.20;99.90;;;;;;5088729;28;20082;-76
2022/06/10 09:37:19;;;;;;;14.88;6.10;;;18.20;99.90;;;;;;5109936;28;20100;-77
2022/06/10 09:43:19;;;;;;;40.00;14.63;;;18.20;99.90;;;;;;5105231;28;20075;-76
2022/06/10 09:45:58;;;;;;;15.52;5.97;;;18.20;99.90;;;;;;5079518;28;20067;-75
2022/06/10 09:48:36;;;;;;;12.18;5.25;;;18.20;99.90;;;;;;5092892;28;20035;-77
2022/06/10 09:51:11;;;;;;;11.35;4.72;;;18.20;99.90;;;;;;5080778;28;20042;-74
2022/06/10 09:53:46;;;;;;;10.23;4.82;;;18.10;99.90;;;;;;5075739;28;20105;-76
2022/06/10 09:56:32;;;;;;;16.52;6.50;;;18.10;99.90;;;;;;5088631;28;20085;-77
2022/06/10 09:59:09;;;;;;;12.40;5.20;;;18.10;99.90;;;;;;5100453;28;20130;-76
2022/06/10 10:01:40;;;;;;;13.18;5.00;;;18.10;99.90;;;;;;5091895;28;20057;-77
2022/06/10 10:04:21;;;;;;;10.55;4.70;;;18.10;99.90;;;;;;5101491;28;20108;-77
2022/06/10 10:06:57;;;;;;;11.20;4.25;;;18.10;99.90;;;;;;5108687;28;20069;-77
2022/06/10 10:09:51;;;;;;;12.53;4.87;;;18.10;99.90;;;;;;5095306;28;20424;-74
2022/06/10 10:12:37;;;;;;;12.43;5.30;;;18.20;99.90;;;;;;5084009;28;20403;-74
2022/06/10 10:15:26;;;;;;;15.90;7.65;;;18.30;99.90;;;;;;5099632;28;20048;-76
2022/06/10 10:18:26;;;;;;;10.18;4.97;;;18.50;99.90;;;;;;5047394;28;20131;-75
2022/06/10 10:21:17;;;;;;;14.60;5.18;;;18.60;99.90;;;;;;5073573;28;20044;-75
2022/06/10 10:23:51;;;;;;;14.00;5.00;;;18.70;99.90;;;;;;5107045;28;20043;-82
2022/06/10 10:26:27;;;;;;;13.13;4.78;;;18.70;99.90;;;;;;5111161;28;20117;-77
2022/06/10 10:29:00;;;;;;;10.82;5.03;;;18.70;99.90;;;;;;5098854;28;20048;-77
2022/06/10 10:31:29;;;;;;;12.65;4.10;;;18.70;99.90;;;;;;5086625;28;20063;-77
2022/06/10 10:33:55;;;;;;;15.25;4.03;;;18.80;99.90;;;;;;5093134;28;20047;-75
2022/06/10 10:36:44;;;;;;;8.90;3.80;;;18.90;99.90;;;;;;5103486;28;20043;-76
2022/06/10 10:39:30;;;;;;;10.95;3.45;;;19.00;99.90;;;;;;5103654;28;20047;-76
2022/06/10 10:42:01;;;;;;;11.93;3.72;;;19.10;99.90;;;;;;5075179;28;20077;-76
2022/06/10 10:44:38;;;;;;;9.43;3.55;;;19.30;99.90;;;;;;5078259;28;20054;-77
2022/06/10 10:47:09;;;;;;;10.20;4.00;;;19.60;99.90;;;;;;5108675;28;20209;-76
2022/06/10 10:50:01;;;;;;;10.45;3.95;;;19.80;99.90;;;;;;5105124;28;20330;-78
2022/06/10 10:52:35;;;;;;;9.85;4.78;;;20.00;99.90;;;;;;5099344;28;20036;-78
2022/06/10 10:55:22;;;;;;;16.23;6.22;;;20.10;99.90;;;;;;5092714;28;20051;-80
2022/06/10 10:58:01;;;;;;;13.82;6.40;;;20.20;99.90;;;;;;5078699;28;20044;-76
2022/06/10 11:00:39;;;;;;;12.07;5.50;;;20.30;99.90;;;;;;5088139;28;20123;-77
2022/06/10 11:03:05;;;;;;;10.70;5.32;;;20.50;99.90;;;;;;5085094;28;20054;-77
2022/06/10 11:05:37;;;;;;;11.68;5.22;;;20.70;99.90;;;;;;5082857;28;20051;-76
2022/06/10 11:08:06;;;;;;;15.05;5.78;;;20.80;99.90;;;;;;5080763;28;20093;-78
2022/06/10 11:10:48;;;;;;;14.82;6.32;;;20.90;99.90;;;;;;5080575;28;20044;-78
2022/06/10 11:13:20;;;;;;;11.88;5.57;;;20.90;99.90;;;;;;5078206;28;20040;-78
2022/06/10 11:15:48;;;;;;;11.65;5.10;;;20.90;99.90;;;;;;5107684;28;20048;-76
2022/06/10 11:18:14;;;;;;;12.48;5.55;;;20.90;99.90;;;;;;5082823;28;20437;-76
2022/06/10 11:20:40;;;;;;;11.15;4.88;;;21.00;99.90;;;;;;5109711;28;20043;-76
2022/06/10 11:23:16;;;;;;;13.10;5.13;;;21.10;99.90;;;;;;5109100;28;20074;-75
2022/06/10 11:25:41;;;;;;;12.63;4.30;;;21.20;99.90;;;;;;5076801;28;20052;-76
2022/06/10 11:28:21;;;;;;;13.77;4.05;;;21.40;99.90;;;;;;5096219;28;20126;-75
2022/06/10 11:30:49;;;;;;;10.63;4.00;;;21.50;99.90;;;;;;5109534;28;20098;-74
2022/06/10 11:33:42;;;;;;;121.60;10.57;;;21.70;99.90;;;;;;5109767;28;20044;-74
2022/06/10 11:36:19;;;;;;;16.08;3.50;;;21.90;99.90;;;;;;5086564;28;20789;-78
2022/06/10 11:39:12;;;;;;;9.75;3.22;;;21.90;99.90;;;;;;5094943;28;20670;-72
2022/06/10 11:41:41;;;;;;;11.45;3.10;;;21.90;99.90;;;;;;5099338;28;20064;-78
2022/06/10 11:44:22;;;;;;;9.85;3.70;;;21.90;99.90;;;;;;5099983;28;20134;-75
2022/06/10 11:47:04;;;;;;;9.82;3.60;;;21.90;99.90;;;;;;5091593;28;20507;-75
2022/06/10 11:49:48;;;;;;;13.10;4.07;;;21.90;99.90;;;;;;5084980;28;20050;-75
2022/06/10 11:52:26;;;;;;;11.93;3.60;;;22.00;99.90;;;;;;5075620;28;20048;-76
2022/06/10 11:55:17;;;;;;;9.55;3.28;;;22.10;99.90;;;;;;5092105;28;20043;-74
2022/06/10 12:00:59;;;;;;;14.50;3.40;;;22.40;99.90;;;;;;5082302;28;20048;-74
2022/06/10 12:03:34;;;;;;;7.40;3.13;;;22.70;99.90;;;;;;5100261;28;20096;-74
2022/06/10 12:06:03;;;;;;;11.00;3.22;;;22.80;99.90;;;;;;5086573;28;20044;-74
2022/06/10 12:08:41;;;;;;;12.40;3.90;;;23.10;99.90;;;;;;5108260;28;20394;-78
2022/06/10 12:11:10;;;;;;;11.40;3.63;;;23.30;99.90;;;;;;5095830;28;20097;-76
2022/06/10 12:13:41;;;;;;;9.27;3.67;;;23.40;99.90;;;;;;5083627;28;20047;-76
2022/06/10 12:16:09;;;;;;;10.63;3.35;;;23.40;99.90;;;;;;5098297;28;20447;-77
2022/06/10 12:18:42;;;;;;;7.82;3.38;;;23.30;99.90;;;;;;5091169;28;20044;-77
2022/06/10 12:21:15;;;;;;;6.90;3.10;;;23.20;99.90;;;;;;5087455;28;20040;-76
2022/06/10 12:23:43;;;;;;;9.70;3.22;;;23.10;99.90;;;;;;5071665;28;20039;-76
2022/06/10 12:26:37;;;;;;;11.25;3.20;;;22.90;99.90;;;;;;5105224;28;20429;-77
2022/06/10 12:29:20;;;;;;;9.55;4.00;;;22.80;99.90;;;;;;5076645;28;20105;-78
2022/06/10 12:32:01;;;;;;;9.68;3.33;;;22.70;99.90;;;;;;5089038;28;20059;-76
2022/06/10 12:34:45;;;;;;;10.13;3.53;;;22.50;99.90;;;;;;5071515;28;20068;-78
2022/06/10 12:37:22;;;;;;;11.02;2.83;;;22.40;99.90;;;;;;5080411;28;20083;-76
2022/06/10 12:39:53;;;;;;;9.05;3.30;;;22.30;99.90;;;;;;5099123;28;20407;-76
2022/06/10 12:42:33;;;;;;;10.15;3.38;;;22.30;99.90;;;;;;5104389;28;20050;-75
2022/06/10 12:45:01;;;;;;;8.38;2.92;;;22.30;99.90;;;;;;5101626;28;20039;-73
2022/06/10 12:47:33;;;;;;;9.38;2.83;;;22.30;99.90;;;;;;5098244;28;20043;-73
2022/06/10 12:50:02;;;;;;;8.75;2.53;;;22.40;99.90;;;;;;5098931;28;20126;-72
2022/06/10 12:52:50;;;;;;;9.18;2.83;;;22.50;99.90;;;;;;5102021;28;20082;-75
2022/06/10 12:56:04;;;;;;;9.05;2.70;;;22.60;99.90;;;;;;5039038;28;20047;-74
2022/06/10 12:58:38;;;;;;;6.82;2.65;;;22.60;99.90;;;;;;5070719;28;20475;-74
2022/06/10 13:01:39;;;;;;;7.78;2.30;;;22.60;99.90;;;;;;5107159;28;20051;-75
2022/06/10 13:04:07;;;;;;;10.52;2.58;;;22.50;99.90;;;;;;5082202;28;20040;-74
2022/06/10 13:06:45;;;;;;;7.88;2.80;;;22.40;99.90;;;;;;5103932;28;20130;-80
2022/06/10 13:09:10;;;;;;;8.25;2.33;;;22.40;99.90;;;;;;5103623;28;20044;-74
2022/06/10 13:11:46;;;;;;;6.05;2.10;;;22.30;99.90;;;;;;5090246;28;20151;-73
2022/06/10 13:14:20;;;;;;;10.07;2.60;;;22.40;99.90;;;;;;5072557;28;20392;-76
2022/06/10 13:16:58;;;;;;;7.40;2.50;;;22.40;99.90;;;;;;5069949;28;20131;-76
2022/06/10 13:19:51;;;;;;;9.18;2.90;;;22.40;99.90;;;;;;5108680;28;20043;-76
2022/06/10 13:22:17;;;;;;;12.18;2.90;;;22.50;99.90;;;;;;5089811;28;20393;-81
2022/06/10 13:24:44;;;;;;;8.77;2.50;;;22.70;99.90;;;;;;5084110;28;20047;-75
2022/06/10 13:27:19;;;;;;;9.07;2.40;;;22.80;99.90;;;;;;5100404;28;20070;-77
2022/06/10 13:29:50;;;;;;;9.73;2.72;;;22.80;99.90;;;;;;5105186;28;20059;-75
2022/06/10 13:32:15;;;;;;;7.28;2.20;;;22.90;99.90;;;;;;5082563;28;20051;-76